臺中航空站 - ATIS

SPECI RCMQ 161810Z 01006KT 2400 RA BR SCT003 BKN010 OVC016 16/16 Q1011 RMK A2986=

站台狀態:Online
最後更新:2022-05-17 02:00:01